Time,TemperatureF,DewpointF,PressureIn,WindDirection,WindDirectionDegrees,WindSpeedMPH,WindSpeedGustMPH,Humidity,HourlyPrecipIn,Conditions,Clouds,dailyrainin,SolarRadiationWatts/m^2,SoftwareType,DateUTC
2013-03-22 00:09:00,29.0,23.6,29.73,WNW,303,5.0,5.0,80,0.00,,,0.00,0,Wunderground v.1.15,2013-03-22 04:09:00,
2013-03-22 00:19:00,29.1,23.1,29.73,WNW,284,5.0,5.0,78,0.00,,,0.00,0,Wunderground v.1.15,2013-03-22 04:19:00,
2013-03-22 00:30:00,29.1,23.1,29.73,WNW,291,6.0,6.0,78,0.00,,,0.00,0,Wunderground v.1.15,2013-03-22 04:30:00,
2013-03-22 00:40:00,28.2,24.6,29.73,West,265,5.0,5.0,86,0.00,,,0.00,0,Wunderground v.1.15,2013-03-22 04:40:00,
2013-03-22 00:50:00,27.6,25.1,29.73,WNW,296,4.0,4.0,90,0.00,,,0.00,0,Wunderground v.1.15,2013-03-22 04:50:00,
2013-03-22 01:00:00,27.4,25.1,29.74,WNW,302,3.0,8.0,91,0.00,,,0.00,0,Wunderground v.1.15,2013-03-22 05:00:00,
2013-03-22 01:10:00,27.4,25.4,29.73,WSW,254,3.0,5.0,92,0.00,,,0.00,0,Wunderground v.1.15,2013-03-22 05:10:00,
2013-03-22 01:20:00,27.4,25.4,29.73,West,261,2.0,4.0,92,0.00,,,0.00,0,Wunderground v.1.15,2013-03-22 05:20:00,
2013-03-22 01:30:00,27.5,25.7,29.73,WSW,254,2.0,2.0,93,0.00,,,0.00,0,Wunderground v.1.15,2013-03-22 05:30:00,
2013-03-22 01:40:00,27.5,25.7,29.73,WNW,298,2.0,6.0,93,0.00,,,0.00,0,Wunderground v.1.15,2013-03-22 05:40:00,
2013-03-22 01:50:00,27.5,25.7,29.73,West,276,3.0,3.0,93,0.00,,,0.00,0,Wunderground v.1.15,2013-03-22 05:50:00,
2013-03-22 02:00:00,27.6,25.8,29.74,WNW,294,2.0,3.0,93,0.00,,,0.00,0,Wunderground v.1.15,2013-03-22 06:00:00,
2013-03-22 02:10:00,27.5,25.7,29.74,WNW,290,2.0,2.0,93,0.00,,,0.00,0,Wunderground v.1.15,2013-03-22 06:10:00,
2013-03-22 02:20:00,27.5,25.7,29.74,West,278,3.0,4.0,93,0.00,,,0.00,0,Wunderground v.1.15,2013-03-22 06:20:00,
2013-03-22 02:30:00,27.4,25.1,29.74,NW,306,4.0,4.0,91,0.00,,,0.00,0,Wunderground v.1.15,2013-03-22 06:30:00,
2013-03-22 02:40:00,27.2,24.9,29.74,West,273,4.0,4.0,91,0.00,,,0.00,0,Wunderground v.1.15,2013-03-22 06:40:00,
2013-03-22 02:50:00,27.0,24.5,29.74,West,272,5.0,5.0,90,0.00,,,0.00,0,Wunderground v.1.15,2013-03-22 06:50:00,
2013-03-22 03:00:00,26.9,24.1,29.74,West,263,4.0,4.0,89,0.00,,,0.00,0,Wunderground v.1.15,2013-03-22 07:00:00,
2013-03-22 03:09:00,26.9,24.4,29.73,West,273,6.0,6.0,90,0.00,,,0.00,0,Wunderground v.1.15,2013-03-22 07:09:00,
2013-03-22 03:19:00,26.7,24.2,29.73,West,271,4.0,5.0,90,0.00,,,0.00,0,Wunderground v.1.15,2013-03-22 07:19:00,
2013-03-22 03:40:00,26.3,23.8,29.73,WNW,297,4.0,4.0,90,0.00,,,0.00,0,Wunderground v.1.15,2013-03-22 07:40:00,
2013-03-22 03:50:00,26.2,23.9,29.73,West,263,4.0,5.0,91,0.00,,,0.00,0,Wunderground v.1.15,2013-03-22 07:50:00,
2013-03-22 04:00:00,26.1,23.8,29.73,WSW,247,4.0,4.0,91,0.00,,,0.00,0,Wunderground v.1.15,2013-03-22 08:00:00,
2013-03-22 04:09:00,26.3,24.0,29.73,WSW,250,4.0,5.0,91,0.00,,,0.00,0,Wunderground v.1.15,2013-03-22 08:09:00,
2013-03-22 04:20:00,26.5,24.0,29.73,West,271,4.0,4.0,90,0.00,,,0.00,0,Wunderground v.1.15,2013-03-22 08:20:00,
2013-03-22 04:30:00,26.6,24.1,29.73,WNW,284,5.0,5.0,90,0.00,,,0.00,0,Wunderground v.1.15,2013-03-22 08:30:00,
2013-03-22 04:40:00,26.5,24.0,29.73,WNW,296,4.0,4.0,90,0.00,,,0.00,0,Wunderground v.1.15,2013-03-22 08:40:00,
2013-03-22 04:50:00,26.6,24.1,29.73,West,276,5.0,8.0,90,0.00,,,0.00,0,Wunderground v.1.15,2013-03-22 08:50:00,
2013-03-22 05:00:00,26.4,23.6,29.73,West,265,4.0,6.0,89,0.00,,,0.00,0,Wunderground v.1.15,2013-03-22 09:00:00,
2013-03-22 05:10:00,26.4,23.6,29.73,NNW,332,5.0,6.0,89,0.00,,,0.00,0,Wunderground v.1.15,2013-03-22 09:10:00,
2013-03-22 05:20:00,26.2,23.4,29.73,West,276,4.0,5.0,89,0.00,,,0.00,0,Wunderground v.1.15,2013-03-22 09:20:00,
2013-03-22 05:30:00,26.0,23.2,29.73,West,271,5.0,6.0,89,0.00,,,0.00,0,Wunderground v.1.15,2013-03-22 09:30:00,
2013-03-22 05:40:00,26.0,22.9,29.73,WNW,296,5.0,5.0,88,0.00,,,0.00,0,Wunderground v.1.15,2013-03-22 09:40:00,
2013-03-22 05:50:00,26.1,23.0,29.73,West,263,5.0,6.0,88,0.00,,,0.00,0,Wunderground v.1.15,2013-03-22 09:50:00,
2013-03-22 06:00:00,26.2,23.1,29.73,West,279,5.0,5.0,88,0.00,,,0.00,0,Wunderground v.1.15,2013-03-22 10:00:00,
2013-03-22 06:10:00,26.4,23.3,29.73,West,272,5.0,5.0,88,0.00,,,0.00,0,Wunderground v.1.15,2013-03-22 10:10:00,
2013-03-22 06:20:00,26.6,23.5,29.73,West,267,5.0,5.0,88,0.00,,,0.00,0,Wunderground v.1.15,2013-03-22 10:20:00,
2013-03-22 06:30:00,26.7,23.4,29.73,NW,320,5.0,5.0,87,0.00,,,0.00,0,Wunderground v.1.15,2013-03-22 10:30:00,
2013-03-22 06:40:00,26.8,23.4,29.73,West,262,5.0,5.0,87,0.00,,,0.00,0,Wunderground v.1.15,2013-03-22 10:40:00,
2013-03-22 06:50:00,27.0,23.6,29.73,NW,309,5.0,5.0,87,0.00,,,0.00,0,Wunderground v.1.15,2013-03-22 10:50:00,
2013-03-22 07:00:00,27.1,23.7,29.74,WSW,256,5.0,9.0,87,0.00,,,0.00,0,Wunderground v.1.15,2013-03-22 11:00:00,
2013-03-22 07:10:00,27.2,23.8,29.74,West,276,6.0,6.0,87,0.00,,,0.00,0,Wunderground v.1.15,2013-03-22 11:10:00,
2013-03-22 07:20:00,27.1,24.0,29.74,WSW,246,5.0,5.0,88,0.00,,,0.00,5,Wunderground v.1.15,2013-03-22 11:20:00,
2013-03-22 07:30:00,27.2,24.1,29.74,West,267,6.0,6.0,88,0.00,,,0.00,7,Wunderground v.1.15,2013-03-22 11:30:00,
2013-03-22 07:39:00,27.3,24.2,29.74,WSW,256,5.0,5.0,88,0.00,,,0.00,7,Wunderground v.1.15,2013-03-22 11:39:00,
2013-03-22 07:49:00,27.2,24.4,29.75,West,273,4.0,4.0,89,0.00,,,0.00,19,Wunderground v.1.15,2013-03-22 11:49:00,
2013-03-22 08:00:00,27.5,24.7,29.76,West,259,5.0,6.0,89,0.00,,,0.00,14,Wunderground v.1.15,2013-03-22 12:00:00,
2013-03-22 08:10:00,27.4,24.9,29.76,West,278,6.0,6.0,90,0.00,,,0.00,25,Wunderground v.1.15,2013-03-22 12:10:00,
2013-03-22 08:20:00,27.4,24.9,29.76,NW,315,4.0,6.0,90,0.00,,,0.00,21,Wunderground v.1.15,2013-03-22 12:20:00,
2013-03-22 08:30:00,27.6,25.1,29.76,West,275,5.0,6.0,90,0.00,,,0.00,23,Wunderground v.1.15,2013-03-22 12:30:00,
2013-03-22 08:40:00,27.6,25.1,29.76,West,273,4.0,7.0,90,0.00,,,0.00,30,Wunderground v.1.15,2013-03-22 12:40:00,
2013-03-22 08:50:00,27.8,25.5,29.76,WNW,286,5.0,5.0,91,0.00,,,0.00,32,Wunderground v.1.15,2013-03-22 12:50:00,
2013-03-22 09:00:00,27.8,25.5,29.77,SW,232,4.0,7.0,91,0.00,,,0.00,32,Wunderground v.1.15,2013-03-22 13:00:00,
2013-03-22 09:10:00,28.0,25.7,29.77,WSW,238,4.0,5.0,91,0.00,,,0.00,54,Wunderground v.1.15,2013-03-22 13:10:00,
2013-03-22 09:20:00,28.3,26.3,29.77,West,263,4.0,6.0,92,0.00,,,0.00,74,Wunderground v.1.15,2013-03-22 13:20:00,
2013-03-22 09:30:00,28.6,26.6,29.77,WNW,289,4.0,4.0,92,0.00,,,0.00,51,Wunderground v.1.15,2013-03-22 13:30:00,
2013-03-22 09:40:00,28.8,26.8,29.77,WNW,292,3.0,4.0,92,0.00,,,0.00,49,Wunderground v.1.15,2013-03-22 13:40:00,
2013-03-22 09:50:00,28.9,26.6,29.78,NW,309,3.0,5.0,91,0.00,,,0.00,42,Wunderground v.1.15,2013-03-22 13:50:00,
2013-03-22 10:00:00,29.1,26.8,29.78,WNW,296,4.0,4.0,91,0.00,,,0.00,49,Wunderground v.1.15,2013-03-22 14:00:00,
2013-03-22 10:10:00,29.2,26.9,29.78,WNW,290,6.0,6.0,91,0.00,,,0.00,113,Wunderground v.1.15,2013-03-22 14:10:00,
2013-03-22 10:20:00,28.9,26.6,29.78,NW,309,9.0,9.0,91,0.00,,,0.00,271,Wunderground v.1.15,2013-03-22 14:20:00,
2013-03-22 10:30:00,28.9,26.3,29.79,NW,311,10.0,10.0,90,0.00,,,0.00,341,Wunderground v.1.15,2013-03-22 14:30:00,
2013-03-22 10:40:00,28.7,26.1,29.79,NW,309,10.0,10.0,90,0.00,,,0.00,308,Wunderground v.1.15,2013-03-22 14:40:00,
2013-03-22 10:50:00,28.7,26.1,29.80,NNW,327,10.0,16.0,90,0.00,,,0.00,276,Wunderground v.1.15,2013-03-22 14:50:00,
2013-03-22 11:00:00,28.1,25.5,29.80,NNW,329,12.0,16.0,90,0.00,,,0.00,385,Wunderground v.1.15,2013-03-22 15:00:00,
2013-03-22 11:10:00,28.8,26.0,29.80,WNW,302,10.0,10.0,89,0.00,,,0.00,452,Wunderground v.1.15,2013-03-22 15:10:00,
2013-03-22 11:20:00,28.7,25.0,29.80,NW,321,9.0,9.0,86,0.00,,,0.00,399,Wunderground v.1.15,2013-03-22 15:20:00,
2013-03-22 11:30:00,28.7,24.8,29.81,NW,315,10.0,10.0,85,0.00,,,0.00,404,Wunderground v.1.15,2013-03-22 15:30:00,
2013-03-22 11:40:00,28.7,24.2,29.81,NW,320,12.0,12.0,83,0.00,,,0.00,415,Wunderground v.1.15,2013-03-22 15:40:00,
2013-03-22 11:50:00,29.2,24.7,29.81,WNW,288,10.0,15.0,83,0.00,,,0.00,485,Wunderground v.1.15,2013-03-22 15:50:00,
2013-03-22 12:00:00,29.0,24.2,29.81,NW,306,11.0,11.0,82,0.00,,,0.00,364,Wunderground v.1.15,2013-03-22 16:00:00,
2013-03-22 12:10:00,29.2,24.4,29.81,NW,323,7.0,9.0,82,0.00,,,0.00,380,Wunderground v.1.15,2013-03-22 16:10:00,
2013-03-22 12:19:00,29.6,23.6,29.81,NW,315,9.0,9.0,78,0.00,,,0.00,383,Wunderground v.1.15,2013-03-22 16:19:00,
2013-03-22 12:29:00,29.7,23.7,29.81,WSW,243,8.0,8.0,78,0.00,,,0.00,274,Wunderground v.1.15,2013-03-22 16:29:00,
2013-03-22 12:39:00,29.6,23.6,29.81,NW,315,8.0,8.0,78,0.00,,,0.00,362,Wunderground v.1.15,2013-03-22 16:39:00,
2013-03-22 12:50:00,29.5,23.8,29.82,NW,314,9.0,11.0,79,0.00,,,0.01,309,Wunderground v.1.15,2013-03-22 16:50:00,
2013-03-22 13:00:00,29.4,24.0,29.82,NW,306,10.0,10.0,80,0.00,,,0.01,362,Wunderground v.1.15,2013-03-22 17:00:00,
2013-03-22 13:10:00,30.2,24.5,29.81,West,268,8.0,8.0,79,0.00,,,0.01,483,Wunderground v.1.15,2013-03-22 17:10:00,
2013-03-22 13:20:00,31.0,24.6,29.82,WNW,294,9.0,9.0,77,0.00,,,0.01,585,Wunderground v.1.15,2013-03-22 17:20:00,
2013-03-22 13:30:00,30.6,24.9,29.82,West,277,8.0,8.0,79,0.00,,,0.02,355,Wunderground v.1.15,2013-03-22 17:30:00,
2013-03-22 13:40:00,29.7,25.2,29.82,WNW,298,6.0,6.0,83,0.00,,,0.02,309,Wunderground v.1.15,2013-03-22 17:40:00,
2013-03-22 13:50:00,29.8,24.7,29.82,NW,306,5.0,6.0,81,0.00,,,0.03,213,Wunderground v.1.15,2013-03-22 17:50:00,
2013-03-22 14:00:00,29.9,24.8,29.82,West,267,5.0,5.0,81,0.00,,,0.03,183,Wunderground v.1.15,2013-03-22 18:00:00,
2013-03-22 14:10:00,30.3,24.9,29.82,West,276,5.0,5.0,80,0.00,,,0.03,241,Wunderground v.1.15,2013-03-22 18:10:00,
2013-03-22 14:20:00,30.9,24.5,29.82,WNW,290,8.0,8.0,77,0.00,,,0.03,218,Wunderground v.1.15,2013-03-22 18:20:00,
2013-03-22 14:30:00,31.0,24.6,29.81,WNW,302,7.0,7.0,77,0.00,,,0.04,258,Wunderground v.1.15,2013-03-22 18:30:00,
2013-03-22 14:40:00,31.4,24.7,29.81,NW,309,6.0,6.0,76,0.00,,,0.04,258,Wunderground v.1.15,2013-03-22 18:40:00,
2013-03-22 14:50:00,31.8,24.8,29.81,SW,228,8.0,8.0,75,0.00,,,0.04,287,Wunderground v.1.15,2013-03-22 18:50:00,
2013-03-22 15:00:00,32.2,24.8,29.81,West,281,7.0,7.0,74,0.00,,,0.04,255,Wunderground v.1.15,2013-03-22 19:00:00,
2013-03-22 15:10:00,32.8,25.4,29.81,WSW,254,5.0,6.0,74,0.00,,,0.05,216,Wunderground v.1.15,2013-03-22 19:10:00,
2013-03-22 15:20:00,32.9,25.2,29.81,West,262,6.0,6.0,73,0.00,,,0.05,257,Wunderground v.1.15,2013-03-22 19:20:00,
2013-03-22 15:30:00,32.9,25.2,29.81,NW,313,7.0,8.0,73,0.00,,,0.05,237,Wunderground v.1.15,2013-03-22 19:30:00,
2013-03-22 15:40:00,33.4,25.3,29.81,WSW,238,7.0,13.0,72,0.00,,,0.05,230,Wunderground v.1.15,2013-03-22 19:40:00,
2013-03-22 15:50:00,33.3,25.6,29.81,WNW,296,8.0,9.0,73,0.00,,,0.05,188,Wunderground v.1.15,2013-03-22 19:50:00,
2013-03-22 16:09:00,33.1,26.4,29.82,WNW,290,5.0,5.0,76,0.00,,,0.06,156,Wunderground v.1.15,2013-03-22 20:09:00,
2013-03-22 16:19:00,32.8,26.7,29.82,West,260,7.0,7.0,78,0.00,,,0.06,132,Wunderground v.1.15,2013-03-22 20:19:00,
2013-03-22 16:29:00,32.8,26.7,29.82,West,268,7.0,13.0,78,0.00,,,0.06,114,Wunderground v.1.15,2013-03-22 20:29:00,
2013-03-22 16:40:00,32.9,26.5,29.83,West,273,7.0,9.0,77,0.00,,,0.06,98,Wunderground v.1.15,2013-03-22 20:40:00,
2013-03-22 16:50:00,32.9,26.5,29.83,WSW,248,6.0,6.0,77,0.00,,,0.06,97,Wunderground v.1.15,2013-03-22 20:50:00,
2013-03-22 17:00:00,32.9,26.8,29.83,West,278,6.0,9.0,78,0.00,,,0.06,60,Wunderground v.1.15,2013-03-22 21:00:00,
2013-03-22 17:10:00,32.8,26.7,29.83,West,271,5.0,5.0,78,0.00,,,0.06,56,Wunderground v.1.15,2013-03-22 21:10:00,
2013-03-22 17:20:00,32.7,26.9,29.83,WNW,285,7.0,7.0,79,0.00,,,0.06,54,Wunderground v.1.15,2013-03-22 21:20:00,
2013-03-22 17:30:00,32.6,26.8,29.83,West,272,7.0,13.0,79,0.00,,,0.07,53,Wunderground v.1.15,2013-03-22 21:30:00,
2013-03-22 17:40:00,32.7,26.9,29.84,WSW,246,8.0,12.0,79,0.00,,,0.07,104,Wunderground v.1.15,2013-03-22 21:40:00,
2013-03-22 17:50:00,33.0,26.9,29.84,WNW,288,7.0,10.0,78,0.00,,,0.07,90,Wunderground v.1.15,2013-03-22 21:50:00,
2013-03-22 18:00:00,32.9,26.8,29.84,NW,307,7.0,8.0,78,0.00,,,0.07,49,Wunderground v.1.15,2013-03-22 22:00:00,
2013-03-22 18:10:00,32.8,27.0,29.84,West,267,8.0,9.0,79,0.00,,,0.07,47,Wunderground v.1.15,2013-03-22 22:10:00,
2013-03-22 18:20:00,32.7,27.2,29.85,WNW,298,6.0,6.0,80,0.00,,,0.07,39,Wunderground v.1.15,2013-03-22 22:20:00,
2013-03-22 18:30:00,32.6,27.1,29.85,WNW,290,6.0,6.0,80,0.00,,,0.07,37,Wunderground v.1.15,2013-03-22 22:30:00,
2013-03-22 18:40:00,32.6,27.1,29.85,WSW,244,7.0,7.0,80,0.00,,,0.07,32,Wunderground v.1.15,2013-03-22 22:40:00,
2013-03-22 18:50:00,32.5,27.0,29.85,WSW,250,6.0,6.0,80,0.00,,,0.07,25,Wunderground v.1.15,2013-03-22 22:50:00,
2013-03-22 19:00:00,32.5,27.3,29.86,West,267,6.0,6.0,81,0.00,,,0.07,14,Wunderground v.1.15,2013-03-22 23:00:00,
2013-03-22 19:10:00,32.4,27.2,29.86,WSW,250,6.0,6.0,81,0.00,,,0.07,7,Wunderground v.1.15,2013-03-22 23:10:00,
2013-03-22 19:20:00,32.5,27.3,29.86,SW,236,7.0,9.0,81,0.00,,,0.07,0,Wunderground v.1.15,2013-03-22 23:20:00,
2013-03-22 19:30:00,32.4,27.2,29.87,WNW,282,6.0,6.0,81,0.00,,,0.07,0,Wunderground v.1.15,2013-03-22 23:30:00,
2013-03-22 19:40:00,32.4,27.2,29.87,West,276,7.0,7.0,81,0.00,,,0.07,0,Wunderground v.1.15,2013-03-22 23:40:00,
2013-03-22 19:49:00,32.3,27.4,29.87,WSW,250,7.0,7.0,82,0.00,,,0.07,0,Wunderground v.1.15,2013-03-22 23:49:00,
2013-03-22 19:59:00,32.2,27.3,29.88,WSW,255,6.0,6.0,82,0.00,,,0.07,0,Wunderground v.1.15,2013-03-22 23:59:00,
2013-03-22 20:09:00,32.2,27.3,29.88,West,270,7.0,9.0,82,0.00,,,0.07,0,Wunderground v.1.15,2013-03-23 00:09:00,
2013-03-22 20:20:00,32.2,27.3,29.88,WSW,255,7.0,7.0,82,0.00,,,0.07,0,Wunderground v.1.15,2013-03-23 00:20:00,
2013-03-22 20:40:00,32.1,27.2,29.89,WNW,283,8.0,10.0,82,0.00,,,0.07,0,Wunderground v.1.15,2013-03-23 00:40:00,
2013-03-22 20:50:00,32.0,27.1,29.89,West,279,6.0,8.0,82,0.00,,,0.07,0,Wunderground v.1.15,2013-03-23 00:50:00,
2013-03-22 21:00:00,32.0,27.1,29.89,WNW,293,7.0,13.0,82,0.00,,,0.07,0,Wunderground v.1.15,2013-03-23 01:00:00,
2013-03-22 21:10:00,32.1,27.2,29.89,WSW,254,8.0,8.0,82,0.00,,,0.07,0,Wunderground v.1.15,2013-03-23 01:10:00,
2013-03-22 21:20:00,32.1,27.2,29.89,WSW,240,8.0,8.0,82,0.00,,,0.07,0,Wunderground v.1.15,2013-03-23 01:20:00,
2013-03-22 21:30:00,32.0,27.1,29.89,WSW,258,6.0,6.0,82,0.00,,,0.07,0,Wunderground v.1.15,2013-03-23 01:30:00,
2013-03-22 21:40:00,32.0,27.4,29.89,West,261,6.0,8.0,83,0.00,,,0.07,0,Wunderground v.1.15,2013-03-23 01:40:00,
2013-03-22 21:50:00,32.0,27.4,29.90,West,278,6.0,6.0,83,0.00,,,0.07,0,Wunderground v.1.15,2013-03-23 01:50:00,
2013-03-22 22:00:00,32.0,27.4,29.90,West,278,7.0,7.0,83,0.00,,,0.07,0,Wunderground v.1.15,2013-03-23 02:00:00,
2013-03-22 22:10:00,32.1,27.8,29.90,NW,306,6.0,6.0,84,0.00,,,0.07,0,Wunderground v.1.15,2013-03-23 02:10:00,
2013-03-22 22:20:00,32.1,27.5,29.90,West,278,7.0,7.0,83,0.00,,,0.07,0,Wunderground v.1.15,2013-03-23 02:20:00,
2013-03-22 22:30:00,32.0,27.7,29.90,West,263,5.0,5.0,84,0.00,,,0.07,0,Wunderground v.1.15,2013-03-23 02:30:00,
2013-03-22 22:40:00,32.1,27.5,29.90,West,267,6.0,12.0,83,0.00,,,0.07,0,Wunderground v.1.15,2013-03-23 02:40:00,
2013-03-22 22:50:00,32.1,27.5,29.91,West,278,7.0,7.0,83,0.00,,,0.07,0,Wunderground v.1.15,2013-03-23 02:50:00,
2013-03-22 23:00:00,32.1,27.5,29.91,West,261,7.0,9.0,83,0.00,,,0.07,0,Wunderground v.1.15,2013-03-23 03:00:00,
2013-03-22 23:10:00,32.0,27.7,29.91,WNW,292,6.0,6.0,84,0.00,,,0.07,0,Wunderground v.1.15,2013-03-23 03:10:00,
2013-03-22 23:20:00,31.9,27.6,29.90,West,279,7.0,11.0,84,0.00,,,0.07,0,Wunderground v.1.15,2013-03-23 03:20:00,
2013-03-22 23:30:00,31.9,27.6,29.90,WNW,289,8.0,8.0,84,0.00,,,0.07,0,Wunderground v.1.15,2013-03-23 03:30:00,
2013-03-22 23:40:00,31.8,27.5,29.90,West,263,5.0,5.0,84,0.00,,,0.07,0,Wunderground v.1.15,2013-03-23 03:40:00,
2013-03-22 23:49:00,31.8,27.5,29.91,West,279,5.0,5.0,84,0.00,,,0.07,0,Wunderground v.1.15,2013-03-23 03:49:00,